Time;durP1;ratioP1;P1;durP2;ratioP2;P2;SDS_P1;SDS_P2;PMS_P1;PMS_P2;Temp;Humidity;BMP_temperature;BMP_pressure;BME280_temperature;BME280_humidity;BME280_pressure;Samples;Min_cycle;Max_cycle;Signal;HPM_P1;HPM_P2
2021/03/14 00:00:41;;;;;;;37.83;20.77;;;;;;;3.54;97.50;96913.06;5022812;28;20036;-59
2021/03/14 00:03:28;;;;;;;50.63;27.52;;;;;;;3.39;95.42;96889.00;5023734;28;20434;-60
2021/03/14 00:06:12;;;;;;;62.30;29.17;;;;;;;3.51;95.11;96902.78;5021574;28;20039;-59
2021/03/14 00:08:56;;;;;;;60.72;31.25;;;;;;;3.14;95.26;96854.31;5023472;28;20561;-59
2021/03/14 00:11:40;;;;;;;66.57;31.25;;;;;;;3.37;96.25;96898.69;5021764;28;20650;-59
2021/03/14 00:14:24;;;;;;;53.88;27.63;;;;;;;3.48;96.59;96908.91;5024394;28;20091;-59
2021/03/14 00:17:09;;;;;;;56.63;29.48;;;;;;;3.47;96.54;96904.59;5023413;28;20914;-59
2021/03/14 00:19:52;;;;;;;55.15;29.13;;;;;;;3.41;96.22;96886.75;5021719;28;20060;-59
2021/03/14 00:22:36;;;;;;;51.17;28.83;;;;;;;2.46;95.73;96726.00;5027115;28;20048;-60
2021/03/14 00:25:20;;;;;;;49.25;28.50;;;;;;;3.12;95.79;96845.63;5026808;28;20120;-61
2021/03/14 00:28:05;;;;;;;48.72;27.10;;;;;;;3.47;95.86;96904.59;5027098;28;20052;-62
2021/03/14 00:30:49;;;;;;;48.10;25.55;;;;;;;3.58;94.83;96899.53;5025763;28;20052;-60
2021/03/14 00:33:33;;;;;;;38.00;22.63;;;;;;;3.57;93.88;96908.91;5027334;28;20583;-59
2021/03/14 00:36:17;;;;;;;38.65;23.42;;;;;;;3.30;93.30;96858.13;5025599;28;20423;-60
2021/03/14 00:39:02;;;;;;;45.40;23.55;;;;;;;3.60;93.22;96887.13;5026413;28;20073;-60
2021/03/14 00:41:46;;;;;;;41.65;21.90;;;;;;;3.56;93.73;96894.38;5025391;28;20040;-60
2021/03/14 00:44:31;;;;;;;42.38;22.95;;;;;;;3.12;94.76;96845.63;5025998;28;20040;-60
2021/03/14 00:47:14;;;;;;;44.10;23.27;;;;;;;3.01;96.38;96844.38;5025524;28;20127;-61
2021/03/14 00:49:59;;;;;;;36.08;19.73;;;;;;;3.23;96.98;96879.72;5036315;28;20043;-62
2021/03/14 00:52:43;;;;;;;42.25;21.73;;;;;;;3.24;96.04;96881.31;5046841;28;20090;-60
2021/03/14 00:55:26;;;;;;;36.70;19.75;;;;;;;2.94;95.35;96812.03;5045991;28;20098;-60
2021/03/14 00:58:10;;;;;;;35.58;20.23;;;;;;;3.13;94.53;96848.03;5045072;28;20107;-60
2021/03/14 01:00:55;;;;;;;68.50;27.83;;;;;;;2.76;94.55;96806.97;5044894;28;20533;-60
2021/03/14 01:03:39;;;;;;;59.90;28.23;;;;;;;2.96;96.84;96864.50;5046686;28;20067;-60
2021/03/14 01:06:23;;;;;;;46.70;23.50;;;;;;;2.15;98.24;96747.28;5045840;28;20040;-61
2021/03/14 01:09:07;;;;;;;43.38;22.48;;;;;;;2.03;97.89;96700.69;5045449;28;20478;-60
2021/03/14 01:11:51;;;;;;;43.30;22.20;;;;;;;2.87;96.16;96817.22;5044910;28;20102;-62
2021/03/14 01:14:35;;;;;;;36.67;20.73;;;;;;;2.57;96.29;96762.78;5046311;28;20146;-60
2021/03/14 01:17:19;;;;;;;40.10;20.33;;;;;;;3.15;96.35;96853.16;5044258;28;20044;-61
2021/03/14 01:20:06;;;;;;;35.85;19.92;;;;;;;2.86;96.37;96798.41;5045568;28;20063;-60
2021/03/14 01:22:51;;;;;;;35.90;19.63;;;;;;;2.98;96.28;96823.13;5045560;28;20588;-60
2021/03/14 01:25:35;;;;;;;38.25;20.33;;;;;;;3.00;97.71;96853.72;5044069;28;20142;-59
2021/03/14 01:28:19;;;;;;;41.08;19.75;;;;;;;3.06;98.70;96846.94;5044640;28;20531;-59
2021/03/14 01:31:03;;;;;;;36.50;19.48;;;;;;;3.24;98.49;96848.47;5045531;28;20474;-60
2021/03/14 01:33:47;;;;;;;37.13;19.13;;;;;;;3.21;97.99;96849.13;5046628;28;20124;-60
2021/03/14 01:36:31;;;;;;;39.35;19.65;;;;;;;3.27;97.07;96847.03;5045349;28;20167;-60
2021/03/14 01:39:15;;;;;;;43.70;21.42;;;;;;;3.08;96.00;96817.31;5044076;28;20067;-61
2021/03/14 01:41:59;;;;;;;39.75;20.50;;;;;;;2.73;95.39;96783.00;5043906;28;20039;-62
2021/03/14 01:44:45;;;;;;;41.67;23.05;;;;;;;3.09;94.04;96836.16;5045534;28;20063;-59
2021/03/14 01:47:34;;;;;;;38.65;21.05;;;;;;;2.78;93.72;96812.91;5043692;28;20040;-59
2021/03/14 01:50:19;;;;;;;33.20;18.42;;;;;;;2.89;93.61;96841.53;5037989;28;20076;-61
2021/03/14 01:53:04;;;;;;;32.25;18.00;;;;;;;2.40;94.11;96776.50;5024179;28;20107;-59
2021/03/14 01:55:48;;;;;;;38.20;18.88;;;;;;;1.68;95.25;96707.31;5025179;28;20511;-60
2021/03/14 01:58:34;;;;;;;35.78;20.25;;;;;;;2.57;96.25;96836.59;5025862;28;20579;-60
2021/03/14 02:01:19;;;;;;;37.95;21.30;;;;;;;2.56;97.40;96838.50;5024765;28;20462;-60
2021/03/14 02:04:03;;;;;;;43.85;21.90;;;;;;;1.90;98.21;96721.59;5025715;28;20048;-58
2021/03/14 02:06:47;;;;;;;48.78;24.55;;;;;;;2.52;98.01;96812.16;5024776;28;20120;-60
2021/03/14 02:09:32;;;;;;;44.88;24.38;;;;;;;2.08;98.24;96828.91;5025540;28;20129;-60
2021/03/14 02:12:20;;;;;;;43.95;24.10;;;;;;;2.71;98.17;96827.09;5024538;28;20071;-61
2021/03/14 02:15:06;;;;;;;52.47;25.17;;;;;;;2.62;97.96;96803.63;5025003;28;20040;-61
2021/03/14 02:17:52;;;;;;;59.85;29.17;;;;;;;2.61;97.09;96807.47;5025701;28;20588;-60
2021/03/14 02:20:37;;;;;;;68.25;32.40;;;;;;;2.69;96.62;96820.31;5025052;28;20059;-60
2021/03/14 02:23:30;;;;;;;61.97;32.33;;;;;;;2.74;96.93;96828.34;5025016;28;20475;-61
2021/03/14 02:26:24;;;;;;;57.08;28.60;;;;;;;1.51;96.67;96627.06;5023516;28;20032;-61
2021/03/14 02:29:12;;;;;;;49.45;25.90;;;;;;;2.72;97.62;96830.59;5025066;28;20187;-60
2021/03/14 02:31:57;;;;;;;48.88;24.92;;;;;;;2.13;98.78;96774.13;5024219;28;20476;-61
2021/03/14 02:34:46;;;;;;;67.55;31.08;;;;;;;2.55;99.01;96830.63;5024655;28;20056;-60
2021/03/14 02:37:32;;;;;;;58.92;28.77;;;;;;;2.11;99.42;96781.81;5024283;28;20612;-60
2021/03/14 02:40:18;;;;;;;59.55;28.98;;;;;;;2.44;98.76;96812.97;5023939;28;20040;-60
2021/03/14 02:43:04;;;;;;;62.05;27.75;;;;;;;2.62;98.38;96830.97;5024534;28;20087;-62
2021/03/14 02:45:50;;;;;;;49.65;25.63;;;;;;;2.52;98.54;96803.97;5023958;28;20087;-60
2021/03/14 02:48:36;;;;;;;46.42;26.65;;;;;;;2.62;98.92;96820.03;5023441;28;20103;-60
2021/03/14 02:51:20;;;;;;;52.92;27.25;;;;;;;2.55;99.61;96825.19;5023865;28;20045;-61
2021/03/14 02:54:06;;;;;;;61.03;28.75;;;;;;;1.51;99.90;96648.91;5024730;28;20462;-60
2021/03/14 02:56:52;;;;;;;51.45;26.65;;;;;;;2.23;99.79;96760.13;5022367;28;20044;-61
2021/03/14 02:59:36;;;;;;;55.72;26.63;;;;;;;2.73;99.03;96829.50;5023449;28;20060;-60
2021/03/14 03:02:21;;;;;;;43.17;23.15;;;;;;;2.30;97.76;96752.22;5024346;28;20076;-60
2021/03/14 03:05:08;;;;;;;44.38;24.38;;;;;;;2.69;97.08;96801.19;5023896;28;20072;-60
2021/03/14 03:07:54;;;;;;;42.40;21.35;;;;;;;2.46;97.56;96795.13;5024090;28;20108;-60
2021/03/14 03:10:44;;;;;;;42.28;22.45;;;;;;;2.12;97.56;96747.94;5024137;28;20036;-60
2021/03/14 03:13:30;;;;;;;41.28;19.90;;;;;;;2.64;97.24;96824.03;5024111;28;20148;-59
2021/03/14 03:16:18;;;;;;;40.10;19.02;;;;;;;1.85;95.91;96691.72;5023771;28;20114;-59
2021/03/14 03:19:02;;;;;;;43.40;19.92;;;;;;;1.98;96.44;96725.44;5024157;28;20107;-59
2021/03/14 03:21:47;;;;;;;34.55;19.55;;;;;;;2.61;96.60;96815.66;5022479;28;20036;-59
2021/03/14 03:24:31;;;;;;;33.33;17.77;;;;;;;2.61;96.83;96802.00;5022940;28;20048;-59
2021/03/14 03:27:15;;;;;;;36.13;18.77;;;;;;;2.30;97.11;96769.44;5023324;28;20420;-60
2021/03/14 03:29:59;;;;;;;37.05;19.45;;;;;;;2.55;97.27;96815.06;5024187;28;20044;-59
2021/03/14 03:32:43;;;;;;;40.40;21.67;;;;;;;2.55;96.17;96830.63;5024021;28;20167;-59
2021/03/14 03:35:30;;;;;;;42.60;22.15;;;;;;;2.33;97.30;96811.69;5022216;28;20048;-59
2021/03/14 03:38:14;;;;;;;82.28;38.90;;;;;;;2.05;98.05;96804.97;5023496;28;20083;-59
2021/03/14 03:40:59;;;;;;;64.38;28.00;;;;;;;1.78;98.50;96739.75;5023410;28;20103;-61
2021/03/14 03:43:44;;;;;;;60.28;29.88;;;;;;;2.27;98.76;96813.00;5023946;28;20048;-60
2021/03/14 03:46:29;;;;;;;57.35;28.40;;;;;;;2.36;98.34;96816.50;5023481;28;20104;-60
2021/03/14 03:49:15;;;;;;;53.85;27.17;;;;;;;2.36;96.24;96805.59;5036801;28;20110;-60
2021/03/14 03:52:00;;;;;;;56.90;26.48;;;;;;;2.32;95.43;96819.13;5023335;28;20424;-60
2021/03/14 03:54:48;;;;;;;52.35;26.58;;;;;;;2.34;96.04;96818.78;5024422;28;20068;-63
2021/03/14 03:57:32;;;;;;;55.33;26.63;;;;;;;2.36;96.28;96805.59;5027550;28;20062;-60
2021/03/14 04:00:19;;;;;;;55.40;27.70;;;;;;;2.45;96.17;96809.13;5026771;28;20047;-61
2021/03/14 04:03:04;;;;;;;64.35;32.60;;;;;;;2.34;96.10;96780.53;5028127;28;20071;-60
2021/03/14 04:05:54;;;;;;;78.00;37.97;;;;;;;1.72;97.34;96725.47;5047164;28;20068;-59
2021/03/14 04:08:40;;;;;;;126.90;53.25;;;;;;;2.14;99.29;96808.50;5046291;28;20048;-59
2021/03/14 04:11:25;;;;;;;89.03;41.20;;;;;;;1.58;99.52;96720.16;5047244;28;20040;-59
2021/03/14 04:14:10;;;;;;;68.68;34.08;;;;;;;2.19;99.23;96805.59;5047533;28;20047;-59
2021/03/14 04:16:55;;;;;;;94.88;44.95;;;;;;;2.17;97.56;96769.59;5046648;28;20106;-59
2021/03/14 04:19:43;;;;;;;91.38;41.67;;;;;;;2.42;96.82;96793.38;5047376;28;20110;-59
2021/03/14 04:22:29;;;;;;;87.97;43.08;;;;;;;2.04;97.01;96765.13;5046851;28;20151;-61
2021/03/14 04:25:15;;;;;;;73.78;38.35;;;;;;;2.49;95.18;96799.13;5046471;28;20047;-60
2021/03/14 04:28:01;;;;;;;67.38;34.85;;;;;;;2.41;94.86;96791.75;5047203;28;20808;-59
2021/03/14 04:30:46;;;;;;;73.28;37.30;;;;;;;1.74;95.40;96697.84;5046975;28;20134;-62
2021/03/14 04:33:31;;;;;;;76.00;39.78;;;;;;;2.33;96.12;96795.31;5047224;28;20048;-61
2021/03/14 04:36:16;;;;;;;82.35;40.22;;;;;;;2.28;95.65;96768.13;5046701;28;20418;-60
2021/03/14 04:39:01;;;;;;;87.75;42.72;;;;;;;1.81;94.81;96695.44;5046400;28;20079;-61
2021/03/14 04:41:46;;;;;;;86.93;43.22;;;;;;;2.24;94.73;96797.25;5046595;28;20040;-60
2021/03/14 04:44:31;;;;;;;114.97;52.25;;;;;;;2.51;93.84;96791.44;5047176;28;20451;-60
2021/03/14 04:47:15;;;;;;;125.50;54.80;;;;;;;2.61;91.90;96791.06;5044789;28;20383;-63
2021/03/14 04:50:00;;;;;;;99.18;50.10;;;;;;;2.44;92.51;96788.38;5046607;28;20121;-60
2021/03/14 04:52:49;;;;;;;68.72;36.20;;;;;;;2.45;92.34;96781.78;5046789;28;20056;-62
2021/03/14 04:55:34;;;;;;;74.22;39.17;;;;;;;2.39;92.61;96780.34;5045714;28;20560;-59
2021/03/14 04:58:21;;;;;;;84.90;39.85;;;;;;;2.46;92.97;96799.78;5046261;28;20128;-60
2021/03/14 05:01:06;;;;;;;68.40;33.78;;;;;;;2.50;93.44;96785.16;5045681;28;20044;-60
2021/03/14 05:03:52;;;;;;;80.28;39.15;;;;;;;2.52;93.33;96782.09;5046355;28;20047;-59
2021/03/14 05:06:40;;;;;;;88.82;44.80;;;;;;;2.56;93.64;96777.59;5044670;28;20098;-63
2021/03/14 05:09:24;;;;;;;85.72;47.35;;;;;;;1.58;94.38;96619.19;5046530;28;20079;-60
2021/03/14 05:12:09;;;;;;;55.60;29.42;;;;;;;2.23;94.83;96724.63;5045715;28;20124;-61
2021/03/14 05:14:54;;;;;;;56.15;29.17;;;;;;;2.39;94.71;96728.41;5046187;28;20064;-62
2021/03/14 05:17:40;;;;;;;51.38;28.92;;;;;;;2.11;92.52;96631.59;5045979;28;20071;-60
2021/03/14 05:20:26;;;;;;;66.93;33.65;;;;;;;3.07;91.96;96771.94;5045411;28;20103;-61
2021/03/14 05:23:11;;;;;;;78.45;35.20;;;;;;;2.83;91.85;96708.78;5044462;28;20419;-60
2021/03/14 05:25:56;;;;;;;68.97;33.47;;;;;;;3.29;92.19;96746.25;5045552;28;20040;-61
2021/03/14 05:28:42;;;;;;;57.10;29.63;;;;;;;3.17;92.66;96664.03;5046431;28;20423;-61
2021/03/14 05:31:30;;;;;;;59.63;30.13;;;;;;;4.11;91.04;96768.97;5045309;28;20079;-63
2021/03/14 05:34:17;;;;;;;56.90;28.48;;;;;;;4.02;90.51;96707.97;5044600;28;20052;-60
2021/03/14 05:37:01;;;;;;;54.22;27.65;;;;;;;4.40;88.03;96733.25;5045728;28;20064;-59
2021/03/14 05:39:45;;;;;;;47.10;26.33;;;;;;;4.93;87.37;96750.72;5045653;28;20169;-62
2021/03/14 05:42:29;;;;;;;41.88;24.20;;;;;;;5.30;86.37;96766.06;5045407;28;20108;-59
2021/03/14 05:45:13;;;;;;;43.92;22.85;;;;;;;5.39;86.13;96769.53;5044677;28;20087;-59
2021/03/14 05:47:58;;;;;;;48.42;27.77;;;;;;;5.66;84.80;96764.09;5044603;28;20826;-60
2021/03/14 05:50:42;;;;;;;53.25;30.13;;;;;;;5.87;84.63;96769.50;5043646;28;20160;-61
2021/03/14 05:53:26;;;;;;;45.70;26.98;;;;;;;5.75;83.02;96725.53;5045223;28;20067;-59
2021/03/14 05:56:11;;;;;;;51.10;28.10;;;;;;;5.51;82.73;96645.91;5044358;28;20114;-61
2021/03/14 05:58:56;;;;;;;53.92;30.67;;;;;;;6.14;82.49;96730.25;5043952;28;20075;-60
2021/03/14 06:01:46;;;;;;;59.63;34.40;;;;;;;6.67;81.03;96765.53;5043817;28;20483;-58
2021/03/14 06:04:31;;;;;;;102.68;54.65;;;;;;;6.73;79.97;96761.38;5044036;28;20542;-60
2021/03/14 06:07:16;;;;;;;57.58;35.58;;;;;;;6.37;78.53;96661.75;5029285;28;20168;-61
2021/03/14 06:10:00;;;;;;;53.13;31.70;;;;;;;6.90;75.46;96707.94;5043772;28;20048;-59
2021/03/14 06:12:45;;;;;;;58.10;32.65;;;;;;;6.55;76.19;96674.81;5045164;28;20106;-61
2021/03/14 06:15:29;;;;;;;55.83;34.30;;;;;;;7.17;76.36;96745.63;5044866;28;20035;-60
2021/03/14 06:18:13;;;;;;;60.28;36.40;;;;;;;7.17;76.22;96738.16;5044031;28;20044;-60
2021/03/14 06:20:57;;;;;;;61.25;36.90;;;;;;;7.25;76.02;96744.63;5044562;28;20109;-63
2021/03/14 06:24:06;;;;;;;54.45;34.55;;;;;;;7.31;76.15;96746.78;5044978;28;20043;-59
2021/03/14 06:26:50;;;;;;;53.10;32.97;;;;;;;7.28;76.26;96739.22;5044863;28;20118;-60
2021/03/14 06:29:34;;;;;;;61.17;37.60;;;;;;;7.39;76.64;96754.06;5043903;28;20071;-60
2021/03/14 06:32:18;;;;;;;55.47;33.33;;;;;;;6.97;75.72;96659.34;5043049;28;20126;-61
2021/03/14 06:35:18;;;;;;;59.05;35.20;;;;;;;7.31;75.73;96708.19;5043214;28;20469;-60
2021/03/14 06:38:31;;;;;;;52.20;32.97;;;;;;;7.67;76.18;96749.22;5044404;28;20088;-61
2021/03/14 06:41:19;;;;;;;54.47;33.05;;;;;;;7.62;76.18;96738.44;5043804;28;20063;-60
2021/03/14 06:44:03;;;;;;;49.40;28.95;;;;;;;7.99;76.43;96740.84;5044756;28;20514;-62
2021/03/14 06:46:48;;;;;;;42.97;26.25;;;;;;;7.06;81.33;96728.84;5044432;28;20066;-61
2021/03/14 06:49:37;;;;;;;48.00;28.00;;;;;;;6.93;84.96;96745.78;5044763;28;20453;-61
2021/03/14 06:52:22;;;;;;;44.92;27.13;;;;;;;6.80;86.36;96747.81;5043634;28;20156;-63
2021/03/14 06:55:06;;;;;;;41.72;23.88;;;;;;;6.31;85.80;96635.66;5044294;28;20043;-60
2021/03/14 06:57:50;;;;;;;38.47;21.83;;;;;;;7.35;84.37;96755.91;5042721;28;20125;-61
2021/03/14 07:00:34;;;;;;;44.78;24.42;;;;;;;7.94;82.90;96735.59;5042977;28;20040;-63
2021/03/14 07:03:24;;;;;;;40.28;21.63;;;;;;;8.13;79.60;96717.13;5042810;28;20096;-61
2021/03/14 07:06:14;;;;;;;32.85;21.25;;;;;;;8.49;78.72;96735.22;5043868;28;20044;-59
2021/03/14 07:09:08;;;;;;;42.42;25.63;;;;;;;8.84;77.40;96700.00;5044162;28;20541;-60
2021/03/14 07:11:53;;;;;;;38.47;22.42;;;;;;;9.41;74.03;96744.03;5043703;28;20036;-62
2021/03/14 07:14:37;;;;;;;33.70;21.98;;;;;;;9.60;72.16;96729.31;5044246;28;20511;-59
2021/03/14 07:17:35;;;;;;;41.38;26.17;;;;;;;8.90;72.55;96601.88;5042303;28;20067;-60
2021/03/14 07:20:28;;;;;;;42.08;27.33;;;;;;;9.89;70.75;96706.44;5041487;28;20123;-60
2021/03/14 07:23:15;;;;;;;62.13;35.50;;;;;;;10.29;70.46;96724.03;5042412;28;20083;-62
2021/03/14 07:26:00;;;;;;;61.63;40.42;;;;;;;10.40;68.81;96691.72;5041731;28;20122;-60
2021/03/14 07:28:44;;;;;;;50.95;32.08;;;;;;;10.59;66.89;96715.72;5043748;28;20068;-61
2021/03/14 07:31:30;;;;;;;43.03;29.55;;;;;;;10.87;65.99;96715.19;5042747;28;20375;-60
2021/03/14 07:34:14;;;;;;;41.88;25.95;;;;;;;11.23;64.67;96717.13;5044163;28;20064;-61
2021/03/14 07:36:58;;;;;;;45.45;29.70;;;;;;;11.42;62.35;96708.59;5042597;28;20048;-60
2021/03/14 07:39:46;;;;;;;38.65;26.23;;;;;;;11.53;61.88;96709.47;5041325;28;20099;-63
2021/03/14 07:42:31;;;;;;;38.45;23.92;;;;;;;11.07;64.77;96702.72;5041778;28;20061;-60
2021/03/14 07:45:17;;;;;;;33.08;20.60;;;;;;;10.44;66.97;96706.44;5042927;28;20141;-61
2021/03/14 07:48:03;;;;;;;30.02;20.77;;;;;;;10.90;66.48;96692.28;5043625;28;20098;-61
2021/03/14 07:50:47;;;;;;;26.33;19.10;;;;;;;10.25;66.73;96623.53;5054989;28;20067;-62
2021/03/14 07:53:31;;;;;;;29.90;20.17;;;;;;;10.80;66.71;96693.75;5062227;28;20051;-61
2021/03/14 07:56:15;;;;;;;26.17;17.30;;;;;;;10.80;65.87;96685.44;5062761;28;20579;-62
2021/03/14 07:58:59;;;;;;;;;;;;;;;11.04;63.35;96675.78;5064012;28;21504;-60
2021/03/14 08:01:43;;;;;;;17.45;12.20;;;;;;;10.98;63.30;96674.53;5063226;28;19931;-60
2021/03/14 08:04:32;;;;;;;21.13;14.82;;;;;;;11.11;64.34;96664.75;5063652;28;20046;-60
2021/03/14 08:07:36;;;;;;;20.58;15.02;;;;;;;11.15;64.55;96665.56;5063056;28;20059;-61
2021/03/14 08:10:40;;;;;;;21.67;14.38;;;;;;;11.24;65.01;96652.22;5062773;28;20051;-61
2021/03/14 08:13:31;;;;;;;21.75;14.90;;;;;;;11.36;65.58;96660.22;5063446;28;20106;-60
2021/03/14 08:16:15;;;;;;;20.98;14.05;;;;;;;11.54;64.17;96661.94;5061379;28;20043;-60
2021/03/14 08:19:11;;;;;;;19.33;13.43;;;;;;;11.30;63.99;96636.81;5061606;28;20113;-61
2021/03/14 08:21:55;;;;;;;16.17;12.90;;;;;;;11.89;63.82;96653.06;5061490;28;20054;-60
2021/03/14 08:24:39;;;;;;;21.65;15.40;;;;;;;11.65;63.68;96629.53;5063463;28;20039;-60
2021/03/14 08:27:31;;;;;;;19.33;12.50;;;;;;;11.78;63.75;96632.78;5062786;28;20039;-60
2021/03/14 08:30:30;;;;;;;20.58;14.02;;;;;;;12.26;62.95;96644.50;5062709;28;20048;-61
2021/03/14 08:33:17;;;;;;;19.25;13.85;;;;;;;12.45;61.78;96631.09;5061404;28;20063;-60
2021/03/14 08:36:04;;;;;;;18.52;13.23;;;;;;;12.15;60.76;96558.41;5062548;28;20160;-60
2021/03/14 08:38:53;;;;;;;29.48;17.00;;;;;;;12.92;59.00;96618.88;5061275;28;20442;-60
2021/03/14 08:41:54;;;;;;;17.20;12.55;;;;;;;12.74;57.88;96612.53;5062662;28;20482;-62
2021/03/14 08:44:46;;;;;;;18.92;12.50;;;;;;;11.84;59.66;96534.09;5066617;28;20094;-61
2021/03/14 08:47:30;;;;;;;16.38;12.88;;;;;;;12.25;58.29;96554.84;5066665;28;20121;-61
2021/03/14 08:50:15;;;;;;;17.98;13.20;;;;;;;12.68;59.92;96605.72;5058298;28;20052;-60
2021/03/14 08:53:00;;;;;;;17.42;12.82;;;;;;;12.86;58.54;96612.94;5047010;28;20110;-60
2021/03/14 08:55:44;;;;;;;19.00;13.73;;;;;;;12.58;57.89;96582.31;5044993;28;20187;-61
2021/03/14 08:58:28;;;;;;;19.10;13.23;;;;;;;12.91;57.63;96618.09;5046154;28;20047;-61
2021/03/14 09:01:13;;;;;;;14.75;11.77;;;;;;;12.68;57.41;96592.66;5045580;28;20475;-60
2021/03/14 09:03:57;;;;;;;20.85;13.98;;;;;;;12.55;57.96;96538.63;5046312;28;20499;-61
2021/03/14 09:06:43;;;;;;;18.27;13.57;;;;;;;12.26;59.45;96503.69;5045853;28;20107;-61
2021/03/14 09:09:28;;;;;;;19.50;13.57;;;;;;;13.01;57.91;96606.22;5057625;28;20048;-57
2021/03/14 09:12:15;;;;;;;20.17;14.35;;;;;;;13.12;57.77;96584.75;5063399;28;20071;-60
2021/03/14 09:15:04;;;;;;;20.00;13.50;;;;;;;12.84;57.96;96556.13;5048111;28;20048;-57
2021/03/14 09:17:48;;;;;;;20.63;15.25;;;;;;;12.53;59.67;96546.59;5064306;28;20090;-60
2021/03/14 09:20:32;;;;;;;22.83;15.48;;;;;;;12.87;59.38;96567.25;5063812;28;20059;-60
2021/03/14 09:23:16;;;;;;;35.28;22.90;;;;;;;13.26;58.57;96573.63;5065508;28;20063;-61
2021/03/14 09:26:01;;;;;;;25.67;17.00;;;;;;;13.29;57.32;96572.81;5059425;28;20597;-58
2021/03/14 09:28:45;;;;;;;23.17;15.32;;;;;;;13.19;56.47;96518.03;5056071;28;20592;-57
2021/03/14 09:31:29;;;;;;;34.05;22.02;;;;;;;13.20;57.01;96511.25;5056197;28;20163;-66
2021/03/14 09:34:18;;;;;;;31.77;20.67;;;;;;;13.12;56.72;96506.91;5050251;28;20048;-65
2021/03/14 09:37:03;;;;;;;18.30;13.82;;;;;;;13.57;56.00;96522.69;5051709;28;20055;-65
2021/03/14 09:39:47;;;;;;;25.67;18.65;;;;;;;14.11;54.94;96567.84;5056347;28;20068;-66
2021/03/14 09:42:32;;;;;;;24.98;17.45;;;;;;;14.35;54.07;96558.59;5057598;28;20094;-65
2021/03/14 09:45:20;;;;;;;23.45;16.55;;;;;;;11.84;54.59;96231.63;5054800;28;20051;-66
2021/03/14 09:48:03;;;;;;;26.48;17.88;;;;;;;14.39;53.86;96549.00;5047613;28;20107;-69
2021/03/14 09:50:59;;;;;;;20.85;16.38;;;;;;;13.92;53.06;96482.00;5044852;28;20530;-72
2021/03/14 09:53:44;;;;;;;25.27;18.20;;;;;;;14.96;51.58;96546.63;5058386;28;20046;-68
2021/03/14 09:56:28;;;;;;;21.10;16.00;;;;;;;14.90;51.17;96548.25;5046850;28;20142;-69
2021/03/14 09:59:12;;;;;;;20.67;15.52;;;;;;;14.34;50.52;96437.19;5043331;28;20111;-67
2021/03/14 10:01:56;;;;;;;20.00;14.25;;;;;;;15.21;50.03;96547.19;5044554;28;20040;-68
2021/03/14 10:04:45;;;;;;;19.48;14.63;;;;;;;14.90;50.62;96542.69;5045480;28;20044;-69
2021/03/14 10:07:30;;;;;;;22.00;14.57;;;;;;;14.74;51.89;96539.63;5044887;28;20517;-68
2021/03/14 10:10:14;;;;;;;20.10;15.02;;;;;;;14.56;51.47;96536.16;5043736;28;20039;-68
2021/03/14 10:12:59;;;;;;;25.27;16.55;;;;;;;14.45;51.04;96493.63;5044674;28;20052;-70
2021/03/14 10:15:44;;;;;;;19.40;14.60;;;;;;;14.75;51.08;96530.03;5044338;28;20040;-69
2021/03/14 10:18:29;;;;;;;19.45;14.40;;;;;;;15.05;50.43;96532.97;5043098;28;20494;-67
2021/03/14 10:21:26;;;;;;;18.60;14.10;;;;;;;15.20;49.70;96526.09;5042578;28;20098;-70
2021/03/14 10:24:26;;;;;;;18.17;14.30;;;;;;;15.72;49.53;96516.41;5044351;28;20144;-69
2021/03/14 10:27:11;;;;;;;19.65;14.48;;;;;;;14.51;50.00;96408.41;5044538;28;20079;-69
2021/03/14 10:30:02;;;;;;;25.58;16.52;;;;;;;15.39;49.41;96514.38;5043117;28;20140;-70
2021/03/14 10:32:47;;;;;;;21.30;15.90;;;;;;;15.90;49.24;96511.38;5044367;28;20032;-70
2021/03/14 10:35:31;;;;;;;19.40;14.57;;;;;;;16.29;47.82;96517.28;5044399;28;20078;-70
2021/03/14 10:38:21;;;;;;;16.90;14.40;;;;;;;16.40;46.96;96473.19;5043296;28;20423;-70
2021/03/14 10:41:20;;;;;;;15.13;13.30;;;;;;;16.02;48.03;96493.28;5044281;28;20055;-68
2021/03/14 10:44:04;;;;;;;20.27;14.43;;;;;;;15.95;47.15;96390.03;5043588;28;20047;-69
2021/03/14 10:46:54;;;;;;;19.45;15.40;;;;;;;16.16;47.29;96446.38;5042670;28;20495;-69
2021/03/14 10:49:38;;;;;;;16.35;13.32;;;;;;;16.63;46.81;96487.22;5042882;28;20427;-71
2021/03/14 10:52:22;;;;;;;;;;;;;;;16.91;46.46;96479.59;5043904;28;20067;-69
2021/03/14 10:55:30;;;;;;;14.43;12.57;;;;;;;16.88;45.57;96425.31;5042611;28;19932;-70
2021/03/14 10:58:19;;;;;;;23.08;15.98;;;;;;;17.34;45.21;96464.41;5044375;28;20080;-69
2021/03/14 11:01:05;;;;;;;17.77;14.35;;;;;;;17.42;44.82;96459.50;5042530;28;20099;-70
2021/03/14 11:03:49;;;;;;;16.05;13.13;;;;;;;17.48;44.72;96446.59;5043378;28;20055;-70
2021/03/14 11:06:34;;;;;;;20.75;16.35;;;;;;;17.65;45.16;96448.25;5043117;28;20067;-70
2021/03/14 11:09:19;;;;;;;20.30;15.65;;;;;;;17.93;44.27;96447.66;5042459;28;20102;-69
2021/03/14 11:12:04;;;;;;;21.98;16.50;;;;;;;17.49;43.78;96350.97;5043515;28;20154;-66
2021/03/14 11:14:47;;;;;;;16.27;14.10;;;;;;;17.56;43.74;96352.81;5042703;28;20156;-65
2021/03/14 11:17:37;;;;;;;15.38;13.75;;;;;;;18.27;43.02;96420.09;5043917;28;20538;-65
2021/03/14 11:20:23;;;;;;;20.17;12.90;;;;;;;18.39;41.74;96404.59;5041796;28;20105;-64
2021/03/14 11:23:07;;;;;;;13.55;12.15;;;;;;;18.48;41.51;96408.38;5043937;28;20502;-65
2021/03/14 11:25:52;;;;;;;;;;;;;;;18.67;41.20;96398.34;5044196;28;20091;-65
2021/03/14 11:28:46;;;;;;;15.48;13.75;;;;;;;18.46;40.87;96371.59;5043672;28;19927;-65
2021/03/14 11:31:30;;;;;;;;;;;;;;;18.61;42.09;96389.63;5043432;28;20114;-63
2021/03/14 11:34:15;;;;;;;21.48;16.88;;;;;;;18.71;41.02;96382.97;5043762;28;19937;-66
2021/03/14 11:36:59;;;;;;;16.83;12.50;;;;;;;18.54;40.80;96322.47;5043127;28;20593;-66
2021/03/14 11:39:43;;;;;;;12.32;11.07;;;;;;;18.54;40.36;96302.84;5042937;28;20060;-66
2021/03/14 11:42:28;;;;;;;13.68;12.05;;;;;;;18.33;40.31;96278.13;5042839;28;20059;-65
2021/03/14 11:45:12;;;;;;;13.30;11.65;;;;;;;18.99;41.04;96354.16;5047913;28;20527;-66
2021/03/14 11:47:56;;;;;;;16.70;14.90;;;;;;;18.78;40.72;96276.16;5043644;28;20055;-66
2021/03/14 11:50:41;;;;;;;22.17;14.40;;;;;;;18.29;40.32;96229.75;5042374;28;20125;-67
2021/03/14 11:53:25;;;;;;;12.40;11.18;;;;;;;19.03;40.61;96326.78;5043675;28;20147;-66
2021/03/14 11:56:08;;;;;;;;;;;;;;;19.08;40.61;96334.66;5042047;28;20060;-66
2021/03/14 11:58:54;;;;;;;19.80;13.63;;;;;;;19.09;40.16;96325.03;5041873;28;19970;-65
2021/03/14 12:01:39;;;;;;;14.02;11.90;;;;;;;19.07;40.20;96324.69;5055305;28;20487;-67
2021/03/14 12:04:23;;;;;;;32.33;20.00;;;;;;;19.17;39.69;96315.16;5042356;28;20128;-68
2021/03/14 12:07:06;;;;;;;;;;;;;;;19.20;38.94;96311.47;5042477;28;20526;-66
2021/03/14 12:09:52;;;;;;;16.55;11.85;;;;;;;19.45;38.11;96314.38;5042313;28;19944;-64
2021/03/14 12:12:36;;;;;;;19.48;13.95;;;;;;;18.70;38.97;96187.78;5041973;28;20052;-65
2021/03/14 12:15:20;;;;;;;12.18;10.82;;;;;;;19.58;37.26;96303.94;5041464;28;20502;-64
2021/03/14 12:18:05;;;;;;;12.18;10.90;;;;;;;19.08;38.81;96297.38;5045960;28;20075;-64
2021/03/14 12:20:49;;;;;;;13.77;10.95;;;;;;;18.81;39.53;96297.72;5046111;28;20095;-63
2021/03/14 12:23:34;;;;;;;12.23;10.90;;;;;;;18.34;40.71;96301.34;5047330;28;20349;-63
2021/03/14 12:26:20;;;;;;;12.70;10.18;;;;;;;18.23;40.66;96312.03;5045403;28;20083;-64
2021/03/14 12:29:06;;;;;;;13.25;10.45;;;;;;;18.12;40.86;96301.09;5045352;28;20067;-64
2021/03/14 12:31:50;;;;;;;12.65;9.93;;;;;;;17.69;39.85;96205.25;5058719;28;20102;-64
2021/03/14 12:34:34;;;;;;;10.15;9.15;;;;;;;18.36;39.52;96284.88;5065306;28;20035;-63
2021/03/14 12:37:18;;;;;;;;;;;;;;;18.51;39.33;96288.94;5066789;28;20490;-66
2021/03/14 12:40:03;;;;;;;12.52;10.23;;;;;;;18.51;39.22;96274.91;5064966;28;19972;-65
2021/03/14 12:42:48;;;;;;;11.60;10.13;;;;;;;18.48;39.25;96267.38;5066289;28;20034;-65
2021/03/14 12:45:32;;;;;;;11.00;9.85;;;;;;;18.65;39.29;96261.28;5064728;28;20075;-64
2021/03/14 12:48:16;;;;;;;;;;;;;;;18.77;38.87;96265.38;5067110;28;20509;-68
2021/03/14 12:51:00;;;;;;;11.88;9.80;;;;;;;19.00;38.91;96260.28;5060329;28;19974;-68